Time;durP1;ratioP1;P1;durP2;ratioP2;P2;SDS_P1;SDS_P2;PMS_P1;PMS_P2;Temp;Humidity;BMP_temperature;BMP_pressure;BME280_temperature;BME280_humidity;BME280_pressure;Samples;Min_cycle;Max_cycle;Signal;HPM_P1;HPM_P2
2022/12/13 00:00:55;;;;;;;7.82;1.48;;;;;;;15.34;100.00;100858.72;2076757;28;20119;-76
2022/12/13 00:02:18;;;;;;;7.97;1.48;;;;;;;15.33;100.00;100851.63;2076782;28;20046;-76
2022/12/13 00:03:39;;;;;;;11.10;1.73;;;;;;;15.32;100.00;100855.16;2068688;28;20050;-76
2022/12/13 00:05:01;;;;;;;10.25;1.52;;;;;;;15.31;100.00;100854.28;2075355;28;20050;-76
2022/12/13 00:06:23;;;;;;;8.95;1.33;;;;;;;15.30;100.00;100851.59;2075215;28;20045;-76
2022/12/13 00:07:46;;;;;;;11.70;1.90;;;;;;;15.29;100.00;100861.38;2077093;28;20084;-76
2022/12/13 00:09:08;;;;;;;8.43;1.20;;;;;;;15.28;100.00;100853.41;2077818;28;20599;-76
2022/12/13 00:10:30;;;;;;;10.30;1.30;;;;;;;15.28;100.00;100850.75;2078892;28;20548;-76
2022/12/13 00:11:53;;;;;;;10.52;1.65;;;;;;;15.26;100.00;100856.06;2084154;28;20586;-76
2022/12/13 00:13:17;;;;;;;6.13;1.50;;;;;;;15.26;100.00;100847.19;2069909;28;20442;-77
2022/12/13 00:14:39;;;;;;;8.25;1.08;;;;;;;15.24;100.00;100847.19;2074011;28;20042;-76
2022/12/13 00:16:06;;;;;;;5.65;1.13;;;;;;;15.24;100.00;100852.50;2069405;28;20054;-76
2022/12/13 00:17:28;;;;;;;10.43;1.55;;;;;;;15.23;100.00;100837.44;2075063;28;20045;-76
2022/12/13 00:18:52;;;;;;;6.78;1.67;;;;;;;15.24;100.00;100835.66;2076153;28;20046;-75
2022/12/13 00:20:15;;;;;;;11.95;1.75;;;;;;;15.21;100.00;100841.00;2070912;28;20049;-75
2022/12/13 00:21:36;;;;;;;6.40;1.60;;;;;;;15.20;100.00;100845.44;2069105;28;20045;-76
2022/12/13 00:22:58;;;;;;;8.05;1.35;;;;;;;15.19;100.00;100833.03;2066162;28;20885;-76
2022/12/13 00:24:21;;;;;;;10.80;1.73;;;;;;;15.20;100.00;100834.81;2067034;28;20042;-76
2022/12/13 00:25:43;;;;;;;7.75;1.45;;;;;;;15.19;100.00;100830.38;2072241;28;20073;-76
2022/12/13 00:27:05;;;;;;;6.63;1.10;;;;;;;15.16;100.00;100825.94;2069441;28;20526;-76
2022/12/13 00:28:29;;;;;;;7.05;1.40;;;;;;;15.16;100.00;100831.25;2077163;28;20057;-75
2022/12/13 00:29:52;;;;;;;6.30;1.73;;;;;;;15.15;100.00;100826.84;2064270;28;20045;-76
2022/12/13 00:31:13;;;;;;;5.78;1.10;;;;;;;15.13;100.00;100828.59;2074655;28;20108;-75
2022/12/13 00:32:35;;;;;;;6.50;1.48;;;;;;;15.13;100.00;100827.72;2061275;28;20481;-76
2022/12/13 00:33:58;;;;;;;6.18;1.45;;;;;;;15.15;100.00;100825.94;2074980;28;20057;-76
2022/12/13 00:35:20;;;;;;;7.93;1.48;;;;;;;15.15;100.00;100820.63;2077581;28;20049;-76
2022/12/13 00:36:42;;;;;;;9.60;1.70;;;;;;;15.15;100.00;100826.84;2069525;28;20045;-76
2022/12/13 00:38:05;;;;;;;9.00;1.55;;;;;;;15.16;100.00;100827.72;2077612;28;20560;-76
2022/12/13 00:39:27;;;;;;;10.77;2.17;;;;;;;15.19;100.00;100829.47;2077770;28;20127;-76
2022/12/13 00:40:50;;;;;;;9.95;1.77;;;;;;;15.19;100.00;100832.13;2079145;28;20049;-76
2022/12/13 00:42:12;;;;;;;7.65;1.48;;;;;;;15.18;100.00;100831.25;2072030;28;20057;-75
2022/12/13 00:43:36;;;;;;;5.82;1.42;;;;;;;15.20;100.00;100840.13;2074794;28;20056;-76
2022/12/13 00:44:58;;;;;;;8.70;1.48;;;;;;;15.21;100.00;100841.00;2077512;28;20037;-76
2022/12/13 00:46:21;;;;;;;11.00;1.73;;;;;;;15.20;100.00;100844.56;2069329;28;20049;-76
2022/12/13 00:47:45;;;;;;;8.68;1.75;;;;;;;15.19;100.00;100848.97;2069723;28;20560;-76
2022/12/13 00:49:08;;;;;;;13.70;1.73;;;;;;;15.19;100.00;100848.97;2069776;28;20040;-76
2022/12/13 00:50:30;;;;;;;7.18;1.38;;;;;;;15.20;100.00;100849.88;2069463;28;20061;-76
2022/12/13 00:51:52;;;;;;;6.32;1.10;;;;;;;15.19;100.00;100845.44;2068857;28;20606;-76
2022/12/13 00:53:14;;;;;;;10.25;1.35;;;;;;;15.22;100.00;100845.44;2074931;28;20618;-76
2022/12/13 00:54:36;;;;;;;8.48;1.20;;;;;;;15.24;100.00;100840.97;2077612;28;20068;-77
2022/12/13 00:55:57;;;;;;;12.55;1.98;;;;;;;15.25;100.00;100834.78;2069214;28;20053;-76
2022/12/13 00:57:20;;;;;;;6.93;2.00;;;;;;;15.24;100.00;100836.56;2077234;28;20047;-76
2022/12/13 00:58:43;;;;;;;7.18;1.20;;;;;;;15.24;100.00;100836.56;2076582;28;20562;-76
2022/12/13 01:00:07;;;;;;;8.68;1.33;;;;;;;15.26;100.00;100837.44;2075628;28;20049;-76
2022/12/13 01:01:31;;;;;;;9.30;1.85;;;;;;;15.28;100.00;100838.34;2082875;28;20476;-76
2022/12/13 01:02:54;;;;;;;9.90;1.25;;;;;;;15.27;100.00;100836.56;2077424;28;20046;-75
2022/12/13 01:04:16;;;;;;;7.30;1.70;;;;;;;15.27;100.00;100831.25;2075734;28;20057;-76
2022/12/13 01:05:37;;;;;;;8.70;1.58;;;;;;;15.26;100.00;100837.44;2068112;28;20048;-76
2022/12/13 01:06:59;;;;;;;9.00;1.30;;;;;;;15.25;100.00;100834.78;2074692;28;20149;-75
2022/12/13 01:08:21;;;;;;;8.77;1.50;;;;;;;15.25;100.00;100833.00;2076745;28;20046;-76
2022/12/13 01:09:43;;;;;;;13.05;1.60;;;;;;;15.25;100.00;100833.00;2076477;28;20501;-76
2022/12/13 01:11:06;;;;;;;12.68;1.40;;;;;;;15.25;100.00;100830.34;2085649;28;20118;-76
2022/12/13 01:12:28;;;;;;;9.13;2.05;;;;;;;15.28;100.00;100840.09;2081496;28;20799;-77
2022/12/13 01:13:52;;;;;;;12.85;1.92;;;;;;;15.29;100.00;100833.91;2077633;28;20144;-77
2022/12/13 01:15:14;;;;;;;7.93;1.33;;;;;;;15.33;100.00;100833.00;2073531;28;20088;-77
2022/12/13 01:16:36;;;;;;;8.85;1.17;;;;;;;15.34;100.00;100822.34;2077189;28;20045;-77
2022/12/13 01:17:57;;;;;;;9.90;1.80;;;;;;;15.35;100.00;100813.50;2076857;28;20073;-77
2022/12/13 01:19:20;;;;;;;8.35;1.75;;;;;;;15.37;100.00;100809.03;2075878;28;20081;-76
2022/12/13 01:20:41;;;;;;;11.75;1.42;;;;;;;15.38;100.00;100797.50;2080320;28;20052;-76
2022/12/13 01:22:05;;;;;;;10.65;1.88;;;;;;;15.36;100.00;100801.94;2077010;28;20111;-76
2022/12/13 01:23:28;;;;;;;7.68;1.23;;;;;;;15.37;100.00;100798.38;2080649;28;20061;-76
2022/12/13 01:24:50;;;;;;;5.07;1.30;;;;;;;15.40;100.00;100805.50;2078719;28;20033;-76
2022/12/13 01:26:14;;;;;;;12.82;2.13;;;;;;;15.40;100.00;100810.81;2076286;28;20174;-78
2022/12/13 01:27:36;;;;;;;8.70;1.48;;;;;;;15.38;100.00;100817.91;2077434;28;20076;-77
2022/12/13 01:29:00;;;;;;;10.68;1.30;;;;;;;15.40;100.00;100816.13;2078868;28;20045;-77
2022/12/13 01:30:22;;;;;;;5.20;1.10;;;;;;;15.39;100.00;100823.22;2069509;28;20498;-77
2022/12/13 01:31:45;;;;;;;9.48;1.23;;;;;;;15.39;100.00;100820.56;2084802;28;20060;-77
2022/12/13 01:33:07;;;;;;;8.48;1.40;;;;;;;15.41;100.00;100821.44;2074546;28;20102;-77
2022/12/13 01:34:29;;;;;;;6.82;1.10;;;;;;;15.44;100.00;100824.09;2076418;28;20057;-77
2022/12/13 01:35:51;;;;;;;15.55;1.85;;;;;;;15.47;100.00;100831.19;2078744;28;20053;-77
2022/12/13 01:37:13;;;;;;;6.35;1.35;;;;;;;15.49;100.00;100829.41;2071911;28;20053;-77
2022/12/13 01:38:34;;;;;;;9.93;1.30;;;;;;;15.49;100.00;100834.72;2072365;28;20106;-77
2022/12/13 01:39:57;;;;;;;9.85;1.67;;;;;;;15.47;100.00;100833.84;2078321;28;20056;-76
2022/12/13 01:41:21;;;;;;;11.65;1.90;;;;;;;15.49;100.00;100846.22;2070773;28;20389;-77
2022/12/13 01:42:43;;;;;;;9.13;2.08;;;;;;;15.49;100.00;100845.38;2077261;28;20060;-77
2022/12/13 01:44:45;;;;;;;9.27;1.27;;;;;;;15.47;100.00;100840.06;2074448;28;20083;-75
2022/12/13 01:46:08;;;;;;;10.07;1.00;;;;;;;15.47;100.00;100839.16;2081573;28;20545;-76
2022/12/13 01:47:36;;;;;;;7.35;1.10;;;;;;;15.46;100.00;100834.72;2079560;28;20060;-76
2022/12/13 01:49:03;;;;;;;9.73;1.50;;;;;;;15.45;100.00;100835.63;2079717;28;20049;-76
2022/12/13 01:50:32;;;;;;;9.88;1.00;;;;;;;15.43;100.00;100834.72;2073441;28;20053;-76
2022/12/13 01:51:59;;;;;;;7.90;1.00;;;;;;;15.44;100.00;100836.50;2069458;28;20524;-76
2022/12/13 01:53:27;;;;;;;5.72;1.15;;;;;;;15.45;100.00;100833.84;2076587;28;20516;-76
2022/12/13 01:54:52;;;;;;;9.82;1.58;;;;;;;15.43;100.00;100829.41;2078957;28;20163;-76
2022/12/13 01:56:19;;;;;;;8.90;1.55;;;;;;;15.44;100.00;100829.41;2070258;28;20164;-76
2022/12/13 01:57:46;;;;;;;6.97;0.82;;;;;;;15.44;100.00;100825.84;2064453;28;20046;-76
2022/12/13 01:59:12;;;;;;;5.40;1.27;;;;;;;15.44;100.00;100823.19;2077529;28;20049;-76
2022/12/13 02:00:36;;;;;;;10.25;1.20;;;;;;;15.44;100.00;100824.09;2079102;28;20050;-76
2022/12/13 02:01:57;;;;;;;8.05;1.00;;;;;;;15.43;100.00;100829.41;2078542;28;20049;-76
2022/12/13 02:03:22;;;;;;;11.43;1.30;;;;;;;15.42;100.00;100817.91;2077887;28;20132;-76
2022/12/13 02:04:52;;;;;;;8.25;1.27;;;;;;;15.41;100.00;100818.78;2079000;28;20071;-77
2022/12/13 02:06:17;;;;;;;8.30;1.10;;;;;;;15.38;100.00;100816.13;2079470;28;20083;-77
2022/12/13 02:07:43;;;;;;;9.93;1.40;;;;;;;15.38;100.00;100813.47;2077644;28;20096;-76
2022/12/13 02:09:07;;;;;;;10.73;2.28;;;;;;;15.37;100.00;100810.81;2077441;28;20653;-76
2022/12/13 02:10:31;;;;;;;6.95;1.40;;;;;;;15.36;100.00;100806.41;2079087;28;20383;-77
2022/12/13 02:11:53;;;;;;;8.65;1.13;;;;;;;15.38;100.00;100817.91;2078228;28;20409;-76
2022/12/13 02:13:16;;;;;;;8.50;1.13;;;;;;;15.37;100.00;100809.03;2070625;28;20058;-77
2022/12/13 02:14:39;;;;;;;5.55;1.42;;;;;;;15.40;100.00;100802.84;2070862;28;20053;-76
2022/12/13 02:16:10;;;;;;;6.07;1.05;;;;;;;15.41;100.00;100807.25;2070213;28;20430;-77
2022/12/13 02:17:48;;;;;;;7.10;1.10;;;;;;;15.40;100.00;100809.03;2071599;28;20081;-77
2022/12/13 02:19:41;;;;;;;3.72;1.10;;;;;;;15.37;100.00;100802.81;2073062;28;20042;-76
2022/12/13 02:21:27;;;;;;;12.35;1.20;;;;;;;15.34;100.00;100802.84;2081211;28;20672;-76
2022/12/13 02:23:06;;;;;;;11.50;1.48;;;;;;;15.33;100.00;100804.63;2080925;28;20411;-76
2022/12/13 02:24:58;;;;;;;8.07;0.90;;;;;;;15.30;100.00;100798.41;2073376;28;20505;-76
2022/12/13 02:26:47;;;;;;;10.95;1.92;;;;;;;15.28;100.00;100795.78;2081118;28;20033;-76
2022/12/13 02:28:24;;;;;;;7.07;2.00;;;;;;;15.28;100.00;100784.25;2081302;28;20037;-77
2022/12/13 02:30:25;;;;;;;13.57;1.17;;;;;;;15.26;100.00;100778.94;2073913;28;20057;-76
2022/12/13 02:31:54;;;;;;;7.55;1.40;;;;;;;15.25;100.00;100776.28;2081001;28;20060;-77
2022/12/13 02:33:29;;;;;;;4.35;1.00;;;;;;;15.25;100.00;100773.59;2079533;28;20049;-76
2022/12/13 02:34:56;;;;;;;6.70;1.23;;;;;;;15.25;100.00;100777.16;2080485;28;20037;-77
2022/12/13 02:36:28;;;;;;;6.35;1.05;;;;;;;15.24;100.00;100775.38;2070943;28;20508;-77
2022/12/13 02:37:59;;;;;;;7.15;1.20;;;;;;;15.23;100.00;100770.09;2078686;28;20769;-77
2022/12/13 02:39:23;;;;;;;8.60;1.10;;;;;;;15.24;100.00;100771.84;2079907;28;20049;-76
2022/12/13 02:40:51;;;;;;;7.45;1.33;;;;;;;15.23;100.00;100776.25;2078757;28;20302;-77
2022/12/13 02:42:19;;;;;;;7.38;1.05;;;;;;;15.24;100.00;100785.13;2072947;28;20045;-77
2022/12/13 02:43:48;;;;;;;6.55;1.20;;;;;;;15.22;100.00;100778.97;2079200;28;20045;-77
2022/12/13 02:45:14;;;;;;;8.07;1.33;;;;;;;15.22;100.00;100776.31;2070966;28;20488;-76
2022/12/13 02:46:47;;;;;;;11.57;1.30;;;;;;;15.23;100.00;100778.06;2076270;28;20060;-77
2022/12/13 02:48:13;;;;;;;6.80;1.13;;;;;;;15.22;100.00;100781.63;2079389;28;20054;-76
2022/12/13 02:49:39;;;;;;;7.97;1.52;;;;;;;15.21;100.00;100782.50;2081079;28;20144;-77
2022/12/13 02:51:05;;;;;;;7.47;1.50;;;;;;;15.21;100.00;100799.34;2077804;28;20098;-76
2022/12/13 02:52:31;;;;;;;8.10;1.60;;;;;;;15.21;100.00;100787.81;2078417;28;20045;-76
2022/12/13 02:53:53;;;;;;;5.97;1.17;;;;;;;15.19;100.00;100790.47;2078263;28;20066;-76
2022/12/13 02:55:17;;;;;;;5.15;1.08;;;;;;;15.20;100.00;100786.94;2077420;28;20053;-77
2022/12/13 02:56:39;;;;;;;7.53;1.58;;;;;;;15.21;100.00;100790.47;2081090;28;20056;-77
2022/12/13 02:58:02;;;;;;;5.43;1.30;;;;;;;15.21;100.00;100786.03;2076667;28;20041;-77
2022/12/13 02:59:28;;;;;;;7.13;1.08;;;;;;;15.21;100.00;100786.03;2078313;28;20049;-77
2022/12/13 03:00:57;;;;;;;8.23;1.20;;;;;;;15.23;100.00;100792.22;2074352;28;20115;-76
2022/12/13 03:02:27;;;;;;;3.83;0.65;;;;;;;15.23;100.00;100783.38;2072845;28;20149;-76
2022/12/13 03:04:02;;;;;;;6.97;1.48;;;;;;;15.21;100.00;100787.81;2079092;28;20049;-77
2022/12/13 03:07:24;;;;;;;5.15;1.10;;;;;;;15.21;100.00;100794.03;2089092;28;20057;-77
2022/12/13 03:08:55;;;;;;;12.88;1.38;;;;;;;15.23;100.00;100789.56;2073056;28;20474;-77
2022/12/13 03:10:24;;;;;;;6.85;1.10;;;;;;;15.22;100.00;100785.16;2071851;28;20153;-76
2022/12/13 03:13:48;;;;;;;7.00;1.33;;;;;;;15.25;100.00;100779.81;2072638;28;20497;-76
2022/12/13 03:15:18;;;;;;;7.32;1.10;;;;;;;15.28;100.00;100779.81;2078952;28;20053;-76
2022/12/13 03:16:43;;;;;;;4.90;1.00;;;;;;;15.30;100.00;100782.44;2078394;28;20057;-76
2022/12/13 03:18:14;;;;;;;8.02;1.63;;;;;;;15.32;100.00;100781.56;2078357;28;20137;-77
2022/12/13 03:19:36;;;;;;;3.55;0.88;;;;;;;15.33;100.00;100793.09;2079354;28;20053;-76
2022/12/13 03:21:03;;;;;;;8.57;1.80;;;;;;;15.35;100.00;100793.97;2072077;28;20038;-77
2022/12/13 03:22:24;;;;;;;6.70;1.50;;;;;;;15.36;100.00;100793.09;2070606;28;20046;-77
2022/12/13 03:23:47;;;;;;;8.38;1.35;;;;;;;15.36;100.00;100793.97;2074707;28;20046;-76
2022/12/13 03:25:09;;;;;;;12.25;2.13;;;;;;;15.37;100.00;100781.53;2078452;28;20067;-77
2022/12/13 03:26:32;;;;;;;6.45;1.30;;;;;;;15.37;100.00;100779.78;2078018;28;20034;-76
2022/12/13 03:27:54;;;;;;;5.85;0.90;;;;;;;15.37;100.00;100784.19;2077592;28;20053;-76
2022/12/13 03:29:17;;;;;;;7.88;1.33;;;;;;;15.38;100.00;100792.19;2077216;28;20044;-76
2022/12/13 03:30:40;;;;;;;5.63;1.25;;;;;;;15.40;100.00;100794.84;2078172;28;20107;-76
2022/12/13 03:32:02;;;;;;;4.25;1.20;;;;;;;15.40;100.00;100805.50;2078183;28;20060;-76
2022/12/13 03:33:26;;;;;;;7.15;1.15;;;;;;;15.40;100.00;100808.16;2077864;28;20545;-76
2022/12/13 03:34:48;;;;;;;6.13;1.02;;;;;;;15.40;100.00;100810.81;2077902;28;20057;-76
2022/12/13 03:36:12;;;;;;;9.07;1.25;;;;;;;15.43;100.00;100810.78;2069980;28;20145;-76
2022/12/13 03:37:35;;;;;;;7.65;1.75;;;;;;;15.41;100.00;100815.25;2078443;28;20053;-76
2022/12/13 03:38:57;;;;;;;9.35;1.00;;;;;;;15.40;100.00;100818.78;2072624;28;20671;-77
2022/12/13 03:40:20;;;;;;;8.80;1.52;;;;;;;15.40;100.00;100829.44;2069806;28;20149;-77
2022/12/13 03:41:43;;;;;;;6.35;1.30;;;;;;;15.38;100.00;100816.13;2073605;28;20049;-77
2022/12/13 03:43:04;;;;;;;6.63;1.30;;;;;;;15.37;100.00;100824.09;2078102;28;20056;-77
2022/12/13 03:44:26;;;;;;;2.92;0.80;;;;;;;15.35;100.00;100824.13;2078126;28;20084;-75
2022/12/13 03:45:48;;;;;;;5.38;1.20;;;;;;;15.38;100.00;100828.53;2078060;28;20160;-76
2022/12/13 03:47:10;;;;;;;7.75;1.33;;;;;;;15.40;100.00;100832.09;2077623;28;20053;-76
2022/12/13 03:48:34;;;;;;;5.30;1.27;;;;;;;15.38;100.00;100825.88;2078223;28;20048;-76
2022/12/13 03:49:56;;;;;;;5.93;0.85;;;;;;;15.36;100.00;100827.69;2078090;28;20489;-76
2022/12/13 03:51:18;;;;;;;7.63;1.30;;;;;;;15.35;100.00;100824.13;2077909;28;20049;-77
2022/12/13 03:52:40;;;;;;;6.85;1.35;;;;;;;15.35;100.00;100824.13;2080543;28;20103;-76
2022/12/13 03:54:02;;;;;;;5.47;1.63;;;;;;;15.33;100.00;100820.59;2069439;28;20042;-76
2022/12/13 03:55:23;;;;;;;8.65;1.40;;;;;;;15.32;100.00;100813.50;2075303;28;20054;-77
2022/12/13 03:56:45;;;;;;;11.80;1.55;;;;;;;15.33;100.00;100822.34;2069904;28;20056;-76
2022/12/13 03:58:08;;;;;;;4.57;0.95;;;;;;;15.32;100.00;100817.91;2075380;28;20054;-77
2022/12/13 03:59:30;;;;;;;8.98;1.15;;;;;;;15.29;100.00;100812.63;2077795;28;20053;-77
2022/12/13 04:00:52;;;;;;;9.82;1.10;;;;;;;15.29;100.00;100809.97;2078683;28;20053;-76
2022/12/13 04:02:15;;;;;;;4.90;1.50;;;;;;;15.29;100.00;100805.53;2069269;28;20141;-77
2022/12/13 04:03:40;;;;;;;8.18;1.20;;;;;;;15.28;100.00;100806.41;2069537;28;20041;-77
2022/12/13 04:05:02;;;;;;;6.05;1.10;;;;;;;15.29;100.00;100813.50;2076991;28;20037;-77
2022/12/13 04:06:24;;;;;;;4.45;0.90;;;;;;;15.29;100.00;100808.19;2069705;28;20050;-77
2022/12/13 04:07:47;;;;;;;9.15;1.10;;;;;;;15.29;100.00;100802.00;2069287;28;20057;-77
2022/12/13 04:09:09;;;;;;;8.45;1.20;;;;;;;15.27;100.00;100809.06;2077988;28;20033;-77
2022/12/13 04:10:30;;;;;;;5.30;1.13;;;;;;;15.26;100.00;100804.63;2072373;28;20046;-76
2022/12/13 04:13:34;;;;;;;11.75;5.63;;;;;;;15.24;100.00;100806.41;2079513;28;20140;-77
2022/12/13 04:14:56;;;;;;;8.73;3.35;;;;;;;15.24;100.00;100809.97;2077881;28;20049;-77
2022/12/13 04:16:18;;;;;;;10.88;3.88;;;;;;;15.24;100.00;100822.38;2076828;28;20045;-76
2022/12/13 04:17:39;;;;;;;10.50;5.15;;;;;;;15.26;100.00;100810.84;2077163;28;20476;-77
2022/12/13 04:19:03;;;;;;;12.93;6.03;;;;;;;15.28;100.00;100822.38;2077903;28;20049;-77
2022/12/13 04:20:26;;;;;;;5.25;2.33;;;;;;;15.28;100.00;100821.50;2080388;28;20092;-76
2022/12/13 04:21:48;;;;;;;8.85;2.53;;;;;;;15.29;100.00;100820.59;2077352;28;20060;-77
2022/12/13 04:23:09;;;;;;;8.20;2.42;;;;;;;15.29;100.00;100818.84;2076925;28;20048;-77
2022/12/13 04:24:32;;;;;;;8.10;2.33;;;;;;;15.29;100.00;100824.16;2077709;28;20064;-76
2022/12/13 04:25:54;;;;;;;14.75;6.07;;;;;;;15.32;100.00;100825.91;2075531;28;20100;-76
2022/12/13 04:27:16;;;;;;;15.93;10.45;;;;;;;15.32;100.00;100829.44;2076660;28;20536;-76
2022/12/13 04:28:39;;;;;;;18.95;11.70;;;;;;;15.32;100.00;100837.44;2072121;28;20572;-77
2022/12/13 04:30:01;;;;;;;15.82;10.63;;;;;;;15.33;100.00;100830.34;2075408;28;20060;-77
2022/12/13 04:31:23;;;;;;;12.73;8.43;;;;;;;15.32;100.00;100829.44;2077532;28;20045;-77
2022/12/13 04:32:45;;;;;;;10.68;7.07;;;;;;;15.31;100.00;100829.44;2077524;28;20382;-77
2022/12/13 04:34:09;;;;;;;13.88;8.27;;;;;;;15.33;100.00;100833.00;2076821;28;20635;-77
2022/12/13 04:35:32;;;;;;;15.18;8.75;;;;;;;15.33;100.00;100833.00;2069567;28;20169;-77
2022/12/13 04:36:54;;;;;;;18.60;9.57;;;;;;;15.32;100.00;100829.44;2072439;28;20040;-76
2022/12/13 04:38:15;;;;;;;13.95;8.38;;;;;;;15.34;100.00;100821.47;2076783;28;20081;-76
2022/12/13 04:39:37;;;;;;;13.00;7.18;;;;;;;15.34;100.00;100821.47;2069525;28;20046;-76
2022/12/13 04:41:06;;;;;;;13.20;6.45;;;;;;;15.35;100.00;100818.81;2073521;28;20053;-76
2022/12/13 04:42:28;;;;;;;13.35;8.32;;;;;;;15.34;100.00;100816.16;2078768;28;20072;-77
2022/12/13 04:43:50;;;;;;;15.18;11.07;;;;;;;15.34;100.00;100819.69;2077428;28;20033;-76
2022/12/13 04:45:15;;;;;;;10.90;6.50;;;;;;;15.35;100.00;100821.47;2077803;28;20065;-76
2022/12/13 04:46:38;;;;;;;11.50;6.88;;;;;;;15.34;100.00;100810.84;2077201;28;20041;-76
2022/12/13 04:48:00;;;;;;;13.38;7.13;;;;;;;15.34;100.00;100817.03;2077525;28;20041;-77
2022/12/13 04:49:24;;;;;;;13.43;9.30;;;;;;;15.34;100.00;100814.38;2076970;28;20045;-76
2022/12/13 04:50:45;;;;;;;17.45;12.10;;;;;;;15.35;100.00;100807.28;2077765;28;20046;-75
2022/12/13 04:52:07;;;;;;;20.30;16.85;;;;;;;15.36;100.00;100814.38;2068565;28;20133;-76
2022/12/13 04:53:30;;;;;;;22.33;13.80;;;;;;;15.35;100.00;100808.19;2075136;28;20060;-76
2022/12/13 04:54:52;;;;;;;19.83;14.30;;;;;;;15.38;100.00;100820.56;2076073;28;20042;-76
2022/12/13 04:56:14;;;;;;;18.33;13.80;;;;;;;15.39;100.00;100822.34;2077204;28;20085;-76
2022/12/13 04:57:37;;;;;;;27.15;22.50;;;;;;;15.40;100.00;100817.00;2076554;28;20049;-76
2022/12/13 04:58:59;;;;;;;31.50;22.15;;;;;;;15.41;100.00;100809.94;2069198;28;20453;-76
2022/12/13 05:00:22;;;;;;;22.77;18.95;;;;;;;15.42;100.00;100803.72;2070094;28;20402;-76
2022/12/13 05:01:44;;;;;;;28.65;22.30;;;;;;;15.43;100.00;100809.00;2069508;28;20064;-76
2022/12/13 05:03:06;;;;;;;27.60;21.27;;;;;;;15.43;100.00;100813.44;2073837;28;20064;-76
2022/12/13 05:04:30;;;;;;;27.63;23.50;;;;;;;15.46;100.00;100818.75;2076302;28;20513;-75
2022/12/13 05:05:52;;;;;;;26.15;19.15;;;;;;;15.45;100.00;100809.91;2077707;28;20045;-76
2022/12/13 05:07:15;;;;;;;15.25;10.57;;;;;;;15.47;100.00;100823.19;2076684;28;20057;-76
2022/12/13 05:08:38;;;;;;;12.60;6.97;;;;;;;15.47;100.00;100823.19;2069267;28;20147;-76
2022/12/13 05:10:01;;;;;;;10.07;5.55;;;;;;;15.49;100.00;100822.28;2069541;28;20508;-76
2022/12/13 05:11:24;;;;;;;6.88;4.35;;;;;;;15.51;100.00;100816.97;2071439;28;20054;-76
2022/12/13 05:12:45;;;;;;;8.38;4.47;;;;;;;15.50;100.00;100824.06;2074452;28;20101;-76
2022/12/13 05:14:07;;;;;;;7.97;4.88;;;;;;;15.50;100.00;100828.50;2075826;28;20046;-75
2022/12/13 05:15:30;;;;;;;9.63;5.03;;;;;;;15.50;100.00;100832.03;2077329;28;20053;-76
2022/12/13 05:16:52;;;;;;;26.02;20.08;;;;;;;15.50;100.00;100833.81;2076600;28;20037;-76
2022/12/13 05:18:14;;;;;;;25.05;18.65;;;;;;;15.48;100.00;100836.50;2077166;28;20053;-76
2022/12/13 05:19:38;;;;;;;33.50;26.38;;;;;;;15.50;100.00;100837.38;2076183;28;20486;-75
2022/12/13 05:21:02;;;;;;;50.20;40.30;;;;;;;15.52;100.00;100832.97;2075947;28;20050;-76
2022/12/13 05:22:24;;;;;;;38.65;31.85;;;;;;;15.53;100.00;100831.19;2077840;28;20048;-76
2022/12/13 05:23:47;;;;;;;49.88;40.95;;;;;;;15.56;100.00;100828.50;2077350;28;20465;-76
2022/12/13 05:25:09;;;;;;;52.92;41.78;;;;;;;15.57;100.00;100835.59;2075545;28;20045;-76
2022/12/13 05:26:32;;;;;;;35.20;27.83;;;;;;;15.61;100.00;100831.16;2080028;28;20057;-76
2022/12/13 05:27:56;;;;;;;23.88;17.35;;;;;;;15.65;100.00;100832.91;2077205;28;20709;-76
2022/12/13 05:29:18;;;;;;;16.23;9.50;;;;;;;15.68;100.00;100839.13;2077818;28;20187;-76
2022/12/13 05:30:41;;;;;;;16.15;7.43;;;;;;;15.73;100.00;100842.66;2076683;28;20033;-76
2022/12/13 05:32:04;;;;;;;13.57;2.70;;;;;;;15.75;100.00;100840.84;2076831;28;20107;-76
2022/12/13 05:33:26;;;;;;;8.23;2.50;;;;;;;15.78;100.00;100838.19;2077378;28;20094;-75
2022/12/13 05:34:49;;;;;;;6.15;1.92;;;;;;;15.83;100.00;100828.41;2071599;28;20049;-76
2022/12/13 05:36:11;;;;;;;8.07;2.30;;;;;;;15.85;100.00;100834.59;2074559;28;20126;-76
2022/12/13 05:37:34;;;;;;;10.05;1.98;;;;;;;15.90;100.00;100831.91;2077548;28;20057;-76
2022/12/13 05:38:56;;;;;;;7.28;1.00;;;;;;;15.94;100.00;100836.34;2077117;28;20566;-76
2022/12/13 05:40:19;;;;;;;6.60;1.77;;;;;;;15.97;100.00;100836.31;2077391;28;20123;-76
2022/12/13 05:41:41;;;;;;;4.35;1.20;;;;;;;16.02;100.00;100842.50;2077172;28;20108;-76
2022/12/13 05:43:03;;;;;;;4.63;0.95;;;;;;;16.07;100.00;100854.03;2068919;28;20049;-76
2022/12/13 05:44:25;;;;;;;10.18;1.95;;;;;;;16.11;100.00;100852.22;2073473;28;20056;-76
2022/12/13 05:45:48;;;;;;;4.43;1.35;;;;;;;16.14;100.00;100855.75;2077115;28;20045;-77
2022/12/13 05:47:11;;;;;;;5.43;1.48;;;;;;;16.15;100.00;100857.50;2077325;28;20052;-76
2022/12/13 05:48:32;;;;;;;6.03;1.30;;;;;;;16.16;100.00;100869.94;2079642;28;20053;-76
2022/12/13 05:49:56;;;;;;;4.80;1.38;;;;;;;16.19;100.00;100869.06;2077107;28;20113;-75
2022/12/13 05:51:18;;;;;;;9.73;2.60;;;;;;;16.22;100.00;100871.69;2077095;28;20148;-76
2022/12/13 05:52:42;;;;;;;9.27;3.10;;;;;;;16.23;100.00;100877.00;2079846;28;20049;-75
2022/12/13 05:54:05;;;;;;;7.90;2.38;;;;;;;16.25;100.00;100877.00;2071847;28;20427;-75
2022/12/13 05:55:27;;;;;;;9.98;2.40;;;;;;;16.27;100.00;100872.56;2069406;28;20048;-76
2022/12/13 05:56:49;;;;;;;5.25;1.80;;;;;;;16.28;100.00;100877.84;2070960;28;20065;-75
2022/12/13 05:58:14;;;;;;;7.40;2.20;;;;;;;16.31;100.00;100882.28;2076395;28;20041;-76
2022/12/13 05:59:36;;;;;;;6.70;2.22;;;;;;;16.33;100.00;100884.06;2075608;28;20046;-77
2022/12/13 06:01:06;;;;;;;11.32;1.80;;;;;;;16.37;100.00;100884.03;2067090;28;20049;-76
2022/12/13 06:02:28;;;;;;;10.13;1.50;;;;;;;16.39;100.00;100883.13;2078970;28;20061;-76
2022/12/13 06:03:50;;;;;;;7.65;1.80;;;;;;;16.43;100.00;100868.88;2079719;28;20046;-76
2022/12/13 06:05:14;;;;;;;11.68;1.77;;;;;;;16.48;100.00;100874.19;2075716;28;20049;-76
2022/12/13 06:06:37;;;;;;;5.53;1.50;;;;;;;16.51;100.00;100872.41;2079931;28;20057;-76
2022/12/13 06:07:59;;;;;;;9.30;1.77;;;;;;;16.56;100.00;100883.00;2076698;28;20045;-76
2022/12/13 06:09:22;;;;;;;9.65;1.40;;;;;;;16.59;100.00;100880.34;2077072;28;20052;-76
2022/12/13 06:10:44;;;;;;;12.90;1.80;;;;;;;16.61;100.00;100879.44;2075690;28;20462;-76
2022/12/13 06:12:08;;;;;;;7.28;1.90;;;;;;;16.65;100.00;100881.22;2077053;28;20049;-76
2022/12/13 06:13:30;;;;;;;4.18;1.40;;;;;;;16.70;100.00;100891.84;2069458;28;20099;-76
2022/12/13 06:14:53;;;;;;;9.02;1.95;;;;;;;16.74;100.00;100890.91;2076993;28;20057;-75
2022/12/13 06:16:15;;;;;;;8.32;1.77;;;;;;;16.78;100.00;100881.13;2076746;28;20081;-76
2022/12/13 06:17:37;;;;;;;12.25;1.98;;;;;;;16.84;100.00;100881.06;2077102;28;20052;-76
2022/12/13 06:19:00;;;;;;;11.50;1.80;;;;;;;16.87;100.00;100883.72;2077387;28;20512;-76
2022/12/13 06:20:23;;;;;;;7.90;2.58;;;;;;;16.93;100.00;100889.00;2077031;28;20044;-76
2022/12/13 06:21:46;;;;;;;11.85;4.78;;;;;;;16.97;100.00;100894.28;2076872;28;20041;-75
2022/12/13 06:23:08;;;;;;;7.32;3.35;;;;;;;17.02;100.00;100886.25;2077194;28;20397;-75
2022/12/13 06:24:30;;;;;;;9.35;2.72;;;;;;;17.08;100.00;100886.19;2076816;28;20595;-76
2022/12/13 06:25:53;;;;;;;8.48;2.38;;;;;;;17.17;100.00;100895.91;2078025;28;20176;-75
2022/12/13 06:27:15;;;;;;;7.97;2.75;;;;;;;17.24;100.00;100884.28;2078972;28;20107;-76
2022/12/13 06:28:37;;;;;;;9.38;3.38;;;;;;;17.30;100.00;100886.88;2074069;28;20049;-75
2022/12/13 06:29:59;;;;;;;11.40;4.75;;;;;;;17.37;100.00;100893.91;2078207;28;20509;-76
2022/12/13 06:31:22;;;;;;;9.23;5.20;;;;;;;17.42;100.00;100894.75;2079845;28;20037;-76